Pigeon, West Virginia
Current Conditions -  °F | °C
As of 6:54 AM on Friday 26 Dec 2014 (Local Time) from KCRW Reporting Station
Haze Haze  
Wind Chill: 26°   Ceiling: Unl
Heat Index: 26°   Visibility: 4mi
Dew Point: 24°   Wind: 0mph
Humidity: 92%   Direction: NA
Pressure: 30.29"   Gusts: NA
Location:  38.4633°N, 81.2224°W
Report Text: KCRW 261154Z 00000KT 4SM BR SCT001 M03/M04 A3029 RMK AO2 SLP264 VLY FG 70001 I6001 T10331044 11017 21039 53013
Loading
Personal Weather Stations






























Interactive Weather Map New forecast layout! Learn more

10-Day Weather Forecast

Advertisements
Track Severe Weather on mobile